createdAt,value
2022-12-17T00:01:52.747Z,23.48
2022-12-17T00:04:39.232Z,23.88
2022-12-17T00:07:24.639Z,23.67
2022-12-17T00:10:10.204Z,22.95
2022-12-17T00:12:56.495Z,22.92
2022-12-17T00:15:42.553Z,23.27
2022-12-17T00:18:29.917Z,22.30
2022-12-17T00:21:17.454Z,21.65
2022-12-17T00:24:03.751Z,23.20
2022-12-17T00:26:49.612Z,21.73
2022-12-17T00:29:34.960Z,22.27
2022-12-17T00:32:21.222Z,23.20
2022-12-17T00:35:09.438Z,23.67
2022-12-17T00:37:56.817Z,21.70
2022-12-17T00:40:42.082Z,22.42
2022-12-17T00:43:32.614Z,23.58
2022-12-17T00:46:19.159Z,25.75
2022-12-17T00:49:06.800Z,23.58
2022-12-17T00:51:53.151Z,22.15
2022-12-17T00:54:38.445Z,23.08
2022-12-17T00:57:24.221Z,21.48
2022-12-17T01:00:12.034Z,21.67
2022-12-17T01:02:57.510Z,20.92
2022-12-17T01:05:44.901Z,21.10
2022-12-17T01:08:32.696Z,20.50
2022-12-17T01:11:23.590Z,22.58
2022-12-17T01:14:09.890Z,22.25
2022-12-17T01:16:56.247Z,20.98
2022-12-17T01:19:42.233Z,21.52
2022-12-17T01:22:27.759Z,21.00
2022-12-17T01:25:13.037Z,21.65
2022-12-17T01:27:58.371Z,19.83
2022-12-17T01:30:45.424Z,21.23
2022-12-17T01:33:30.717Z,20.30
2022-12-17T01:36:17.294Z,21.60
2022-12-17T01:39:03.052Z,19.75
2022-12-17T01:41:48.446Z,20.42
2022-12-17T01:45:05.726Z,18.90
2022-12-17T01:48:02.575Z,20.05
2022-12-17T01:50:53.100Z,19.88
2022-12-17T01:53:44.152Z,18.30
2022-12-17T01:56:30.590Z,18.85
2022-12-17T01:59:16.932Z,18.73
2022-12-17T02:02:02.592Z,17.13
2022-12-17T02:04:48.411Z,19.77
2022-12-17T02:08:13.878Z,20.80
2022-12-17T02:11:21.476Z,19.67
2022-12-17T02:14:22.268Z,20.58
2022-12-17T02:17:12.244Z,21.95
2022-12-17T02:20:26.910Z,21.02
2022-12-17T02:23:28.176Z,21.00
2022-12-17T02:26:36.193Z,19.55
2022-12-17T02:29:24.445Z,19.50
2022-12-17T02:32:10.991Z,17.90
2022-12-17T02:35:05.490Z,17.73
2022-12-17T02:37:52.695Z,18.00
2022-12-17T02:40:40.968Z,17.63
2022-12-17T02:43:28.944Z,18.38
2022-12-17T02:46:15.735Z,16.45
2022-12-17T02:49:01.673Z,16.98
2022-12-17T02:51:50.765Z,16.60
2022-12-17T02:54:36.209Z,17.00
2022-12-17T02:57:23.305Z,16.25
2022-12-17T03:00:08.659Z,17.83
2022-12-17T03:02:54.084Z,17.65
2022-12-17T03:05:46.524Z,16.50
2022-12-17T03:08:32.290Z,17.58
2022-12-17T03:11:18.193Z,17.15
2022-12-17T03:14:03.516Z,16.75
2022-12-17T03:16:49.206Z,15.98
2022-12-17T03:19:42.581Z,16.17
2022-12-17T03:22:28.265Z,15.48
2022-12-17T03:25:13.621Z,16.23
2022-12-17T03:27:58.953Z,15.25
2022-12-17T03:30:48.641Z,16.20
2022-12-17T03:33:34.917Z,15.27
2022-12-17T03:36:20.575Z,14.43
2022-12-17T03:39:05.902Z,14.38
2022-12-17T03:41:51.323Z,14.95
2022-12-17T03:44:36.796Z,15.85
2022-12-17T03:47:21.991Z,14.55
2022-12-17T03:50:07.362Z,15.10
2022-12-17T03:52:52.657Z,14.23
2022-12-17T03:55:37.964Z,14.93
2022-12-17T03:58:23.274Z,15.18
2022-12-17T04:01:08.605Z,14.15
2022-12-17T04:03:53.973Z,13.55
2022-12-17T04:06:39.338Z,14.23
2022-12-17T04:09:24.662Z,13.60
2022-12-17T04:12:09.936Z,14.63
2022-12-17T04:14:55.488Z,14.18
2022-12-17T04:17:42.245Z,13.07
2022-12-17T04:20:28.135Z,13.55
2022-12-17T04:23:13.475Z,13.23
2022-12-17T04:25:58.875Z,13.25
2022-12-17T04:28:44.422Z,13.20
2022-12-17T04:31:29.866Z,13.35
2022-12-17T04:34:15.344Z,14.07
2022-12-17T04:37:00.693Z,14.20
2022-12-17T04:39:46.004Z,13.50
2022-12-17T04:42:31.365Z,13.43
2022-12-17T04:45:16.774Z,13.88
2022-12-17T04:48:02.084Z,12.85
2022-12-17T04:50:47.526Z,14.15
2022-12-17T04:53:33.008Z,12.82
2022-12-17T04:56:18.671Z,14.30
2022-12-17T04:59:05.620Z,13.00
2022-12-17T05:01:51.109Z,13.32
2022-12-17T05:04:36.847Z,13.85
2022-12-17T05:07:22.186Z,14.00
2022-12-17T05:10:07.634Z,13.23
2022-12-17T05:12:53.120Z,13.90
2022-12-17T05:15:39.628Z,12.98
2022-12-17T05:18:26.743Z,13.93
2022-12-17T05:21:12.696Z,14.38
2022-12-17T05:23:57.954Z,14.18
2022-12-17T05:26:45.882Z,14.48
2022-12-17T05:29:31.451Z,14.43
2022-12-17T05:32:17.261Z,15.65
2022-12-17T05:35:02.768Z,14.18
2022-12-17T05:37:48.506Z,15.43
2022-12-17T05:40:33.907Z,14.05
2022-12-17T05:43:21.642Z,14.63
2022-12-17T05:46:07.694Z,14.20
2022-12-17T05:48:54.212Z,15.05
2022-12-17T05:51:40.719Z,14.63
2022-12-17T05:54:26.513Z,14.00
2022-12-17T05:57:11.985Z,14.38
2022-12-17T05:59:57.215Z,13.05
2022-12-17T06:02:42.733Z,13.98
2022-12-17T06:05:28.699Z,14.55
2022-12-17T06:08:22.325Z,14.05
2022-12-17T06:11:07.487Z,13.68
2022-12-17T06:13:52.830Z,14.65
2022-12-17T06:16:38.738Z,13.63
2022-12-17T06:19:24.399Z,14.52
2022-12-17T06:22:10.369Z,14.32
2022-12-17T06:24:55.789Z,13.63
2022-12-17T06:27:41.059Z,15.07
2022-12-17T06:30:26.810Z,14.48
2022-12-17T06:33:25.450Z,14.57
2022-12-17T06:36:18.007Z,13.48
2022-12-17T06:39:07.149Z,13.70
2022-12-17T06:41:52.766Z,14.02
2022-12-17T06:44:38.005Z,14.63
2022-12-17T06:47:23.601Z,14.88
2022-12-17T06:50:09.119Z,14.10
2022-12-17T06:52:54.849Z,14.55
2022-12-17T06:55:40.059Z,15.00
2022-12-17T06:58:25.784Z,14.25
2022-12-17T07:01:11.553Z,15.23
2022-12-17T07:03:57.197Z,14.63
2022-12-17T07:06:42.804Z,15.40
2022-12-17T07:09:28.277Z,15.23
2022-12-17T07:12:14.084Z,14.50
2022-12-17T07:14:59.575Z,15.48
2022-12-17T07:17:44.823Z,14.65
2022-12-17T07:20:30.703Z,14.52
2022-12-17T07:23:16.049Z,15.13
2022-12-17T07:26:01.616Z,15.43
2022-12-17T07:28:46.945Z,15.25
2022-12-17T07:31:32.331Z,14.82
2022-12-17T07:34:17.828Z,14.07
2022-12-17T07:37:03.146Z,15.02
2022-12-17T07:39:48.583Z,13.85
2022-12-17T07:42:33.890Z,15.18
2022-12-17T07:45:19.398Z,14.07
2022-12-17T07:48:14.062Z,16.20
2022-12-17T07:50:59.484Z,14.43
2022-12-17T07:53:44.732Z,15.27
2022-12-17T07:56:30.068Z,16.33
2022-12-17T07:59:15.649Z,16.42
2022-12-17T08:02:01.252Z,16.20
2022-12-17T08:04:47.067Z,15.38
2022-12-17T08:07:32.377Z,15.93
2022-12-17T08:10:17.853Z,16.27
2022-12-17T08:13:16.797Z,16.10
2022-12-17T08:16:09.853Z,15.43
2022-12-17T08:18:55.422Z,16.75
2022-12-17T08:21:40.745Z,15.05
2022-12-17T08:24:26.009Z,15.55
2022-12-17T08:27:11.439Z,16.42
2022-12-17T08:29:56.674Z,16.52
2022-12-17T08:32:42.819Z,17.35
2022-12-17T08:35:28.300Z,15.35
2022-12-17T08:38:23.379Z,15.15
2022-12-17T08:41:08.803Z,16.08
2022-12-17T08:43:54.723Z,16.70
2022-12-17T08:46:40.167Z,16.90
2022-12-17T08:49:25.532Z,15.82
2022-12-17T08:52:10.811Z,16.73
2022-12-17T08:54:56.200Z,16.55
2022-12-17T08:57:41.732Z,17.27
2022-12-17T09:00:28.182Z,16.55
2022-12-17T09:03:21.170Z,16.27
2022-12-17T09:06:07.175Z,18.80
2022-12-17T09:08:52.773Z,17.52
2022-12-17T09:11:38.394Z,20.85
2022-12-17T09:14:23.814Z,21.77
2022-12-17T09:17:09.371Z,26.60
2022-12-17T09:19:54.788Z,26.73
2022-12-17T09:22:40.237Z,24.10
2022-12-17T09:25:26.069Z,22.52
2022-12-17T09:28:11.527Z,23.83
2022-12-17T09:30:57.073Z,24.38
2022-12-17T09:33:42.505Z,23.55
2022-12-17T09:36:28.306Z,23.42
2022-12-17T09:39:13.716Z,21.77
2022-12-17T09:42:49.680Z,20.73
2022-12-17T09:45:41.809Z,22.02
2022-12-17T09:49:00.973Z,25.02
2022-12-17T09:51:48.225Z,21.63
2022-12-17T09:54:53.959Z,22.35
2022-12-17T09:57:46.381Z,20.33
2022-12-17T10:00:46.926Z,20.40
2022-12-17T10:03:39.354Z,21.42
2022-12-17T10:06:30.923Z,21.05
2022-12-17T10:09:21.429Z,22.30
2022-12-17T10:12:06.949Z,23.20
2022-12-17T10:14:52.903Z,19.88
2022-12-17T10:17:42.565Z,19.75
2022-12-17T10:20:55.883Z,21.15
2022-12-17T10:23:51.808Z,21.35
2022-12-17T10:26:42.325Z,19.83
2022-12-17T10:29:44.001Z,20.30
2022-12-17T10:32:35.441Z,21.67
2022-12-17T10:35:48.534Z,21.10
2022-12-17T10:38:43.298Z,20.63
2022-12-17T10:41:45.043Z,19.30
2022-12-17T10:44:44.434Z,19.92
2022-12-17T10:47:41.729Z,20.95
2022-12-17T10:50:33.960Z,19.80
2022-12-17T10:53:21.069Z,19.80
2022-12-17T10:56:15.132Z,19.45
2022-12-17T10:59:07.764Z,20.27
2022-12-17T11:02:15.191Z,20.02
2022-12-17T11:05:12.728Z,20.23
2022-12-17T11:08:01.280Z,20.02
2022-12-17T11:10:49.710Z,18.60
2022-12-17T11:13:58.589Z,17.85
2022-12-17T11:16:53.291Z,20.27
2022-12-17T11:19:54.555Z,19.15
2022-12-17T11:23:05.928Z,19.05
2022-12-17T11:26:13.089Z,19.27
2022-12-17T11:28:58.614Z,19.67
2022-12-17T11:32:13.891Z,19.73
2022-12-17T11:35:25.819Z,19.42
2022-12-17T11:38:22.942Z,18.98
2022-12-17T11:41:17.028Z,19.42
2022-12-17T11:44:45.809Z,18.63
2022-12-17T11:47:53.631Z,18.00
2022-12-17T11:51:01.685Z,18.80
2022-12-17T11:54:03.874Z,19.33
2022-12-17T11:57:00.084Z,20.60
2022-12-17T12:00:20.979Z,18.63
2022-12-17T12:03:24.255Z,18.02
2022-12-17T12:06:16.520Z,18.77
2022-12-17T12:09:01.838Z,17.70
2022-12-17T12:12:26.209Z,18.30
2022-12-17T12:15:38.985Z,18.35
2022-12-17T12:18:39.162Z,18.75
2022-12-17T12:21:34.143Z,18.05
2022-12-17T12:24:56.715Z,18.00
2022-12-17T12:28:14.237Z,18.10
2022-12-17T12:31:23.352Z,18.48
2022-12-17T12:34:19.124Z,17.08
2022-12-17T12:37:06.367Z,18.23
2022-12-17T12:40:16.738Z,18.17
2022-12-17T12:43:10.077Z,19.25
2022-12-17T12:46:21.536Z,17.70
2022-12-17T12:49:12.788Z,17.05
2022-12-17T12:51:58.627Z,17.63
2022-12-17T12:55:05.174Z,17.80
2022-12-17T12:58:14.619Z,17.48
2022-12-17T13:01:05.937Z,16.75
2022-12-17T13:04:03.630Z,17.17
2022-12-17T13:06:56.354Z,17.23
2022-12-17T13:09:23.267Z,17.60
2022-12-17T13:12:00.096Z,17.98
2022-12-17T13:14:30.039Z,16.77
2022-12-17T13:17:16.036Z,17.80
2022-12-17T13:20:00.148Z,18.42
2022-12-17T13:22:27.124Z,16.90
2022-12-17T13:25:15.915Z,19.00
2022-12-17T13:27:43.373Z,18.25
2022-12-17T13:30:22.176Z,18.10
2022-12-17T13:33:12.886Z,17.67
2022-12-17T13:36:14.702Z,17.00
2022-12-17T13:39:21.150Z,17.30
2022-12-17T13:41:56.210Z,16.73
2022-12-17T13:44:26.327Z,16.80
2022-12-17T13:46:54.459Z,16.92
2022-12-17T13:49:31.197Z,18.17
2022-12-17T13:52:11.832Z,17.58
2022-12-17T13:54:39.225Z,17.27
2022-12-17T13:57:22.242Z,16.15
2022-12-17T14:00:00.046Z,17.85
2022-12-17T14:02:32.840Z,17.27
2022-12-17T14:05:07.419Z,17.27
2022-12-17T14:07:38.160Z,16.25
2022-12-17T14:10:06.118Z,16.77
2022-12-17T14:12:35.449Z,16.77
2022-12-17T14:15:08.352Z,17.65
2022-12-17T14:17:37.644Z,16.25
2022-12-17T14:20:06.760Z,16.90
2022-12-17T14:22:37.496Z,16.80
2022-12-17T14:25:07.112Z,16.90
2022-12-17T14:27:36.599Z,16.05
2022-12-17T14:30:23.108Z,17.38
2022-12-17T14:32:50.036Z,17.98
2022-12-17T14:35:25.662Z,17.35
2022-12-17T14:37:52.709Z,17.05
2022-12-17T14:40:19.697Z,18.52
2022-12-17T14:42:47.068Z,16.38
2022-12-17T14:45:16.865Z,16.63
2022-12-17T14:47:58.944Z,16.60
2022-12-17T14:50:27.801Z,16.60
2022-12-17T14:52:57.718Z,17.42
2022-12-17T14:55:40.032Z,17.58
2022-12-17T14:58:12.877Z,18.02
2022-12-17T15:00:42.046Z,16.63
2022-12-17T15:03:15.248Z,17.30
2022-12-17T15:05:42.291Z,18.15
2022-12-17T15:08:11.764Z,16.60
2022-12-17T15:10:38.686Z,17.73
2022-12-17T15:13:08.756Z,16.33
2022-12-17T15:15:35.677Z,16.85
2022-12-17T15:18:02.722Z,16.13
2022-12-17T15:20:29.684Z,16.95
2022-12-17T15:22:56.626Z,16.65
2022-12-17T15:25:23.602Z,16.25
2022-12-17T15:27:51.264Z,15.77
2022-12-17T15:30:19.090Z,16.58
2022-12-17T15:32:47.224Z,17.92
2022-12-17T15:35:14.976Z,17.85
2022-12-17T15:37:41.846Z,16.70
2022-12-17T15:40:11.935Z,17.25
2022-12-17T15:42:59.198Z,17.15
2022-12-17T15:45:31.558Z,18.08
2022-12-17T15:47:58.766Z,16.98
2022-12-17T15:50:25.720Z,17.23
2022-12-17T15:52:52.602Z,17.23
2022-12-17T15:55:19.507Z,18.73
2022-12-17T15:57:46.347Z,18.85
2022-12-17T16:00:14.093Z,19.27
2022-12-17T16:02:41.101Z,17.75
2022-12-17T16:05:08.800Z,19.77
2022-12-17T16:07:37.078Z,19.38
2022-12-17T16:10:05.892Z,23.17
2022-12-17T16:12:33.204Z,21.90
2022-12-17T16:15:00.163Z,20.90
2022-12-17T16:17:27.120Z,19.38
2022-12-17T16:19:54.047Z,20.52
2022-12-17T16:22:20.977Z,19.55
2022-12-17T16:24:47.988Z,21.25
2022-12-17T16:27:18.143Z,20.70
2022-12-17T16:29:47.660Z,19.75
2022-12-17T16:32:15.764Z,21.25
2022-12-17T16:34:43.214Z,22.20
2022-12-17T16:37:10.355Z,21.65
2022-12-17T16:39:37.381Z,22.77
2022-12-17T16:42:04.478Z,21.88
2022-12-17T16:44:31.405Z,21.60
2022-12-17T16:46:59.834Z,20.67
2022-12-17T16:49:27.460Z,22.50
2022-12-17T16:51:55.956Z,21.73
2022-12-17T16:54:27.364Z,23.02
2022-12-17T16:56:55.887Z,22.52
2022-12-17T16:59:23.745Z,22.95
2022-12-17T17:01:52.121Z,23.70
2022-12-17T17:04:21.704Z,23.20
2022-12-17T17:06:56.541Z,22.48
2022-12-17T17:09:24.473Z,23.15
2022-12-17T17:11:54.416Z,23.42
2022-12-17T17:14:21.372Z,25.20
2022-12-17T17:16:48.928Z,27.23
2022-12-17T17:19:16.189Z,24.75
2022-12-17T17:21:49.990Z,24.90
2022-12-17T17:24:21.268Z,26.25
2022-12-17T17:26:50.426Z,26.65
2022-12-17T17:29:17.515Z,24.95
2022-12-17T17:34:31.696Z,25.70
2022-12-17T17:36:58.557Z,26.23
2022-12-17T17:39:25.830Z,24.73
2022-12-17T17:41:52.768Z,25.15
2022-12-17T17:44:19.671Z,27.65
2022-12-17T17:46:46.625Z,27.27
2022-12-17T17:49:13.599Z,26.20
2022-12-17T17:54:30.468Z,27.80
2022-12-17T17:56:57.362Z,29.45
2022-12-17T17:59:31.189Z,30.27
2022-12-17T18:02:01.494Z,27.80
2022-12-17T18:04:28.715Z,28.75
2022-12-17T18:07:24.186Z,28.17
2022-12-17T18:09:43.795Z,29.27
2022-12-17T18:12:29.355Z,32.03
2022-12-17T18:17:44.644Z,27.15
2022-12-17T18:20:12.136Z,27.10
2022-12-17T18:22:40.293Z,30.13
2022-12-17T18:25:07.598Z,25.23
2022-12-17T18:27:34.668Z,28.58
2022-12-17T18:30:01.556Z,27.25
2022-12-17T18:32:28.498Z,24.70
2022-12-17T18:34:55.414Z,26.40
2022-12-17T18:37:22.394Z,24.17
2022-12-17T18:39:49.432Z,24.27
2022-12-17T18:42:35.042Z,23.83
2022-12-17T18:45:02.328Z,23.83
2022-12-17T18:47:29.262Z,23.55
2022-12-17T18:49:56.143Z,24.13
2022-12-17T18:52:24.913Z,24.75
2022-12-17T18:54:51.926Z,23.30
2022-12-17T18:57:18.832Z,25.08
2022-12-17T18:59:45.879Z,25.55
2022-12-17T19:02:13.530Z,24.80
2022-12-17T19:04:41.507Z,24.60
2022-12-17T19:07:08.603Z,25.15
2022-12-17T19:09:36.206Z,22.10
2022-12-17T19:12:09.771Z,24.27
2022-12-17T19:14:37.179Z,23.50
2022-12-17T19:17:05.108Z,25.30
2022-12-17T19:19:32.530Z,26.05
2022-12-17T19:22:00.429Z,25.40
2022-12-17T19:24:27.842Z,23.88
2022-12-17T19:26:54.823Z,22.63
2022-12-17T19:29:22.306Z,22.55
2022-12-17T19:31:49.765Z,23.98
2022-12-17T19:34:18.808Z,23.60
2022-12-17T19:36:46.801Z,24.52
2022-12-17T19:39:16.346Z,23.65
2022-12-17T19:41:43.295Z,23.08
2022-12-17T19:44:15.137Z,24.27
2022-12-17T19:46:43.355Z,26.13
2022-12-17T19:49:14.890Z,24.55
2022-12-17T19:51:44.409Z,24.33
2022-12-17T19:54:14.965Z,25.25
2022-12-17T19:56:43.448Z,24.50
2022-12-17T19:59:11.782Z,25.83
2022-12-17T20:01:44.356Z,22.77
2022-12-17T20:04:14.052Z,23.63
2022-12-17T20:06:42.537Z,24.27
2022-12-17T20:09:09.776Z,23.02
2022-12-17T20:11:37.345Z,22.35
2022-12-17T20:14:26.564Z,22.75
2022-12-17T20:16:56.951Z,24.83
2022-12-17T20:19:26.881Z,23.40
2022-12-17T20:21:57.544Z,23.70
2022-12-17T20:24:30.739Z,24.27
2022-12-17T20:26:59.137Z,22.77
2022-12-17T20:29:26.176Z,24.77
2022-12-17T20:31:54.797Z,24.63
2022-12-17T20:34:22.002Z,23.52
2022-12-17T20:36:49.564Z,25.63
2022-12-17T20:39:17.452Z,26.80
2022-12-17T20:41:46.660Z,24.63
2022-12-17T20:44:15.048Z,27.42
2022-12-17T20:46:43.682Z,27.52
2022-12-17T20:49:14.648Z,25.70
2022-12-17T20:51:41.876Z,24.75
2022-12-17T20:54:10.856Z,25.92
2022-12-17T20:56:39.614Z,24.02
2022-12-17T20:59:08.740Z,23.55
2022-12-17T21:01:36.814Z,23.75
2022-12-17T21:04:04.622Z,22.77
2022-12-17T21:06:51.834Z,21.88
2022-12-17T21:09:20.259Z,22.17
2022-12-17T21:11:47.259Z,22.98
2022-12-17T21:14:16.800Z,22.55
2022-12-17T21:16:44.487Z,22.90
2022-12-17T21:19:17.358Z,21.48
2022-12-17T21:21:44.728Z,21.38
2022-12-17T21:24:11.772Z,21.15
2022-12-17T21:26:41.271Z,21.58
2022-12-17T21:29:09.105Z,21.83
2022-12-17T21:31:45.059Z,22.67
2022-12-17T21:34:18.427Z,21.25
2022-12-17T21:36:45.458Z,21.63
2022-12-17T21:39:14.479Z,22.17
2022-12-17T21:41:44.779Z,20.27
2022-12-17T21:44:14.096Z,21.35
2022-12-17T21:46:43.593Z,23.27
2022-12-17T21:49:14.830Z,23.40
2022-12-17T21:51:42.052Z,23.35
2022-12-17T21:54:12.347Z,20.20
2022-12-17T21:56:42.829Z,21.05
2022-12-17T21:59:11.486Z,22.60
2022-12-17T22:01:38.456Z,19.92
2022-12-17T22:04:05.394Z,19.98
2022-12-17T22:06:47.341Z,21.60
2022-12-17T22:09:25.913Z,18.90
2022-12-17T22:12:27.614Z,19.50
2022-12-17T22:14:54.504Z,18.98
2022-12-17T22:17:22.046Z,19.58
2022-12-17T22:19:49.075Z,18.58
2022-12-17T22:22:15.963Z,18.38
2022-12-17T22:24:42.900Z,17.58
2022-12-17T22:27:09.923Z,17.63
2022-12-17T22:29:55.781Z,17.70
2022-12-17T22:32:41.227Z,16.77
2022-12-17T22:36:38.210Z,16.70
2022-12-17T22:40:14.490Z,18.50
2022-12-17T22:44:35.294Z,17.38
2022-12-17T22:44:44.418Z,16.88
2022-12-17T22:46:16.901Z,15.75
2022-12-17T22:48:43.942Z,15.88
2022-12-17T22:51:13.243Z,16.58
2022-12-17T22:53:47.199Z,17.27
2022-12-17T22:56:23.548Z,15.63
2022-12-17T22:59:01.203Z,15.93
2022-12-17T23:01:28.821Z,16.45
2022-12-17T23:04:00.505Z,16.67
2022-12-17T23:06:27.882Z,16.63
2022-12-17T23:08:55.865Z,15.75
2022-12-17T23:11:25.113Z,15.77
2022-12-17T23:13:52.624Z,15.68
2022-12-17T23:16:19.612Z,14.77
2022-12-17T23:18:47.823Z,15.57
2022-12-17T23:21:21.114Z,14.43
2022-12-17T23:23:48.297Z,15.30
2022-12-17T23:26:42.985Z,15.05
2022-12-17T23:29:19.398Z,15.10
2022-12-17T23:31:47.246Z,14.95
2022-12-17T23:34:14.590Z,14.27
2022-12-17T23:36:41.482Z,14.70
2022-12-17T23:39:08.489Z,14.40
2022-12-17T23:41:35.664Z,16.10
2022-12-17T23:44:03.477Z,15.05
2022-12-17T23:46:31.552Z,13.00
2022-12-17T23:48:58.805Z,14.50
2022-12-17T23:51:26.158Z,13.25
2022-12-17T23:53:53.307Z,14.15
2022-12-17T23:56:26.309Z,14.65
2022-12-17T23:58:56.256Z,13.68
